Rechercher aéroport 
image banner adimage banner adimage banner ad
image banner ad

O03 - Morgantown

Situé à Morgantown, United States

ICAO - O03, IATA -

Données fournies par Airmate  

Information générale

Coordonnées: N40°9'25" W75°52'14"
Élévation : 600 feet MSL.
Variation magnétique : -11° East
Voir autres Aéroports à Pennsylvania

Données opérationnelles

Special qualification required
Heure actuelle UTC:
Heure actuelle locale:
Météo à : KMQS - Chester County G O Carlson ( 20 km )
METAR: KMQS 132055Z AUTO 00000KT 10SM OVC029 23/18 A2991 RMK AO2
Voir NOTAMs / SUP AIP / TFR affectant cet aéroport [VIEW]
Fréquences de communication: [VIEW]

Pistes:

Identifiant RWYQFULongueur (ft)Largeur (ft)SurfaceLDA (ft)
102500100GRASS
282500100GRASS

Coordonnées de l'aéroport

Adresse: Morgantown United States

Autres services d'aviation

Écoles de pilotage

Black Diamond Soaring, Inc

Black Diamond Soaring, Inc
soaring@dejazzd.com+1(610)913-7627

Vue satellite de O03